»·PEaware :: N415CS KPSP-KAVX

N415CS :: KPSP-KAVX

FLIGHT INFORMATION

Flight Status: Arrived
Operator: Privately registered:
United States
More flights under this callsign
Pilot: Kyle A. (14988)
Aircraft: CESSNA 182 SKYLANE
(C182)
More flights by this aircraft type
Origin: KPSP Palm Springs Intl
United States
Destination: KAVX Catalina
United States
More flights between these airports :: More routes between these airports
Route: CATH1 PSP V388 PDZ V8 SLI SXC
File this flight plan on PilotEdge
Remarks:
Altitude:
(Current/Filed)
10,000ft
Speed:
(Current/Filed)
135kts
Departed: 01-Feb-18 09:16 AM
Arrived: 01-Feb-18 10:10 AM
Distance/Time
Traveled:
99nm/0:54
Distance/Time
To Go:
Arrived

Flight Plot

Page will automatically refresh every two minutes.

Flight plan parsing failed; only flown route is shown


Map Options




Map Legend


Flown Route
Filed Route
Departure Airport
Arrival Airport
Navaid (VOR, NDB)
Fix

Horizontal Profiles

Position Reports

Time Latitude Longitude Heading Altitude Ground
Speed
01-Feb-18 09:11 33.822875 -116.497103 54 480ft 0kts
01-Feb-18 09:12 33.822876 -116.497100 54 480ft 0kts
01-Feb-18 09:13 33.822878 -116.497098 54 480ft 0kts
01-Feb-18 09:14 33.822879 -116.497095 54 480ft 0kts
01-Feb-18 09:15 33.822881 -116.497092 54 480ft 0kts
01-Feb-18 09:16 33.822882 -116.497090 54 480ft 0kts
01-Feb-18 09:17 33.822884 -116.497087 54 480ft 0kts
01-Feb-18 09:18 33.822885 -116.497084 54 480ft 0kts
01-Feb-18 09:19 33.822887 -116.497081 54 480ft 0kts
01-Feb-18 09:20 33.824397 -116.498234 323 480ft 13kts
01-Feb-18 09:21 33.824617 -116.499613 235 480ft 0kts
01-Feb-18 09:22 33.826832 -116.502299 323 480ft 67kts
01-Feb-18 09:23 33.848798 -116.521825 321 1383ft 107kts
01-Feb-18 09:24 33.868829 -116.540996 321 2160ft 119kts
01-Feb-18 09:25 33.894959 -116.565085 339 3122ft 110kts
01-Feb-18 09:26 33.904249 -116.539545 112 4153ft 122kts
01-Feb-18 09:27 33.892198 -116.500020 109 5168ft 127kts
01-Feb-18 09:28 33.879661 -116.460055 109 6155ft 130kts
01-Feb-18 09:29 33.873113 -116.419631 49 7121ft 124kts
01-Feb-18 09:30 33.903225 -116.425976 332 8134ft 116kts
01-Feb-18 09:31 33.930546 -116.446939 295 9125ft 122kts
01-Feb-18 09:32 33.932577 -116.485653 271 9985ft 116kts
01-Feb-18 09:33 33.933889 -116.529883 272 10005ft 141kts
01-Feb-18 09:34 33.937633 -116.579541 274 10004ft 155kts
01-Feb-18 09:35 33.941238 -116.630987 274 10004ft 154kts
01-Feb-18 09:36 33.944222 -116.674635 274 10008ft 148kts
01-Feb-18 09:37 33.947684 -116.725388 274 10013ft 158kts
01-Feb-18 09:38 33.947455 -116.776726 267 10003ft 149kts
01-Feb-18 09:39 33.945786 -116.826437 267 10000ft 147kts
01-Feb-18 09:40 33.944055 -116.876709 267 9989ft 155kts
01-Feb-18 09:41 33.942279 -116.927868 267 9996ft 152kts
01-Feb-18 09:42 33.940514 -116.978120 267 9983ft 147kts
01-Feb-18 09:43 33.938743 -117.028080 267 10001ft 154kts
01-Feb-18 09:44 33.936886 -117.079968 267 10000ft 157kts
01-Feb-18 09:45 33.935019 -117.131645 267 9981ft 151kts
01-Feb-18 09:46 33.933016 -117.183694 267 9863ft 167kts
01-Feb-18 09:47 33.930976 -117.230963 267 9372ft 173kts
01-Feb-18 09:48 33.928472 -117.288506 267 8753ft 170kts
01-Feb-18 09:49 33.925966 -117.345542 267 8164ft 173kts
01-Feb-18 09:50 33.923646 -117.401762 267 7989ft 164kts
01-Feb-18 09:51 33.921357 -117.457907 267 7322ft 169kts
01-Feb-18 09:52 33.919000 -117.515299 267 6639ft 174kts
01-Feb-18 09:53 33.907377 -117.571870 253 6016ft 173kts
01-Feb-18 09:54 33.896174 -117.616141 252 5998ft 152kts
01-Feb-18 09:55 33.883539 -117.665208 252 6007ft 156kts
01-Feb-18 09:56 33.873074 -117.705697 252 5993ft 151kts
01-Feb-18 09:57 33.860338 -117.754887 252 6001ft 157kts
01-Feb-18 09:58 33.848196 -117.804250 252 5977ft 151kts
01-Feb-18 09:59 33.835326 -117.854018 252 5991ft 161kts
01-Feb-18 10:00 33.824055 -117.897721 252 5976ft 162kts
01-Feb-18 10:01 33.810963 -117.948310 252 5997ft 154kts
01-Feb-18 10:02 33.798386 -117.996879 252 5997ft 151kts
01-Feb-18 10:03 33.785803 -118.045256 252 5782ft 159kts
01-Feb-18 10:04 33.753027 -118.081520 217 5111ft 167kts
01-Feb-18 10:05 33.716137 -118.115178 216 4413ft 166kts
01-Feb-18 10:06 33.679573 -118.148043 216 3988ft 156kts
01-Feb-18 10:07 33.645654 -118.178431 216 4003ft 149kts
01-Feb-18 10:08 33.616810 -118.204268 216 4005ft 149kts
01-Feb-18 10:09 33.588984 -118.229176 215 4008ft 149kts
01-Feb-18 10:10 33.555701 -118.258933 215 4012ft 149kts
01-Feb-18 10:11 33.522421 -118.288669 216 4019ft 149kts
01-Feb-18 10:12 33.488721 -118.318745 216 3838ft 157kts
01-Feb-18 10:13 33.450388 -118.342655 205 3523ft 149kts
01-Feb-18 10:14 33.426941 -118.377995 240 2993ft 111kts
01-Feb-18 10:15 33.411705 -118.404383 236 1884ft 82kts
01-Feb-18 10:16 33.402645 -118.419769 232 1605ft 12kts
01-Feb-18 10:17 33.403166 -118.418165 54 1605ft 10kts
01-Feb-18 10:18 33.403349 -118.415613 87 1605ft 10kts
01-Feb-18 10:19 33.403406 -118.415292 333 1605ft 0kts
01-Feb-18 10:20 33.403385 -118.415278 323 1605ft 0kts
01-Feb-18 10:21 33.403385 -118.415278 323 1605ft 0kts
01-Feb-18 10:22 33.403385 -118.415278 323 1605ft 0kts
01-Feb-18 10:23 33.403385 -118.415278 323 1605ft 0kts
01-Feb-18 10:24 33.403385 -118.415278 323 1605ft 0kts
01-Feb-18 10:25 33.403385 -118.415278 323 1605ft 0kts
01-Feb-18 10:26 33.403385 -118.415278 323 1605ft 0kts
01-Feb-18 10:27 33.403385 -118.415278 323 1605ft 0kts
01-Feb-18 10:28 33.403385 -118.415278 323 1605ft 0kts
01-Feb-18 10:29 33.403385 -118.415278 323 1605ft 0kts
01-Feb-18 10:30 33.403385 -118.415278 323 1605ft 0kts
01-Feb-18 10:31 33.403385 -118.415278 323 1605ft 0kts

Navigation Log

Ident Type
Flight plan parsing failed, navigation log unavailable